Larkslane, Kentucky
Current Conditions -  °F | °C
As of 1:55 AM on Sunday 26 Oct 2014 (Local Time) from KPBX Reporting Station
Clear Clear  
Wind Chill: 59°   Ceiling: Unl
Heat Index: 59°   Visibility: 10mi
Dew Point: 55°   Wind: 5mph
Humidity: 87%   Direction: 240°WSW
Pressure: 29.94"   Gusts: NA
Location:  37.3774°N, 82.8859°W
Report Text: KPBX 260555Z AUTO 24004KT 10SM CLR 15/13 A2994 RMK AO2 T01490128 10157 20144
Loading
Personal Weather Stations






























Interactive Weather Map
Tropical Storm Tracking
New forecast layout! Learn more

10-Day Weather Forecast

Advertisements
Track Severe Weather on mobile